Molokai Airport Kaunakakai US
ICAO: PHMK
IATA:
Category: Medium
Scheduled Services:

Elevation: 454 ft
TransAlt. 18000 ft.

Airport Communications:
ATIS:128.2
HONOLULU CNTR:124.1
CTAF:125.7
GND:121.9
HONOLULU RDO:116.1
TWR:125.7

PHMK Zoom In..

If you have problems with the map follow the link
https://www.worldairports.se/pages/airport.php?
ICAO=PHMK

Runways:

(A) RW 05 length 4494 ft width 100 ft
---- / hdg 49

(B) RW 17 length 3118 ft width 100 ft
---- / hdg 169

(C) RW 23 length 4494 ft width 100 ft
---- / hdg 229

(D) RW 35 length 3118 ft width 100 ft
---- / hdg 349

Location; PHMK
Day. 08 / Time. 03.54 Zulu
* Altimeter: 29.95
* Temperature: 24° c. 75.2°f.
* Wind from: 040° Speed 03 kn.
Dewpoint: 19° c.
Visibility: 10 Statute Miles.
Clouds: Few 2800 ft.

PHMK 080354Z 04003KT 10SM FEW028 24/19 A2995 RMK AO2 SLP146 T02440189


Wind From 040°
Speed 03 kn.

 
 
jpsmedia worldairports.se 2019   terms of use